createdAt,value
2022-10-29T19:42:07.191Z,67.36
2022-10-29T19:43:08.697Z,67.37
2022-10-29T19:44:10.217Z,67.42
2022-10-29T19:45:11.675Z,67.62
2022-10-29T19:46:14.137Z,67.49
2022-10-29T19:47:15.620Z,67.76
2022-10-29T19:48:17.104Z,67.63
2022-10-29T19:49:18.568Z,67.66
2022-10-29T19:50:20.065Z,67.83
2022-10-29T19:51:21.704Z,67.97
2022-10-29T19:52:23.279Z,68.31
2022-10-29T19:53:24.949Z,68.24
2022-10-29T19:54:26.407Z,68.17
2022-10-29T19:55:27.984Z,68.54
2022-10-29T19:56:30.589Z,68.81
2022-10-29T19:57:32.227Z,68.78
2022-10-29T19:58:33.850Z,68.77
2022-10-29T19:59:35.345Z,68.65
2022-10-29T20:00:37.146Z,68.96
2022-10-29T20:01:40.365Z,69.16
2022-10-29T20:02:41.941Z,69.05
2022-10-29T20:03:43.689Z,68.85
2022-10-29T20:04:45.209Z,68.78
2022-10-29T20:05:46.794Z,68.93
2022-10-29T20:06:48.796Z,68.87
2022-10-29T20:07:53.530Z,68.92
2022-10-29T20:08:55.077Z,68.92
2022-10-29T20:09:56.630Z,68.92
2022-10-29T20:10:58.818Z,68.78
2022-10-29T20:12:03.708Z,68.68
2022-10-29T20:13:05.230Z,68.84
2022-10-29T20:15:45.569Z,68.87
2022-10-29T20:16:47.231Z,68.91
2022-10-29T20:17:48.691Z,68.85
2022-10-29T20:18:50.304Z,68.93
2022-10-29T20:19:51.740Z,69.05
2022-10-29T20:20:54.435Z,69.09
2022-10-29T20:21:56.119Z,69.02
2022-10-29T20:22:59.462Z,68.92
2022-10-29T20:24:01.518Z,68.88
2022-10-29T20:25:03.097Z,68.82
2022-10-29T20:26:04.569Z,68.78
2022-10-29T20:27:06.160Z,68.69
2022-10-29T20:28:08.011Z,68.80
2022-10-29T20:29:09.544Z,69.14
2022-10-29T20:30:11.376Z,69.16
2022-10-29T20:31:23.875Z,69.18
2022-10-29T20:32:25.382Z,69.07
2022-10-29T20:33:26.877Z,68.90
2022-10-29T20:34:28.363Z,68.93
2022-10-29T20:35:29.849Z,68.77
2022-10-29T20:36:32.028Z,68.68
2022-10-29T20:37:33.786Z,68.60
2022-10-29T20:38:35.292Z,68.50
2022-10-29T20:39:36.846Z,68.58
2022-10-29T20:40:38.407Z,68.48
2022-10-29T20:41:43.499Z,68.43
2022-10-29T20:42:45.063Z,68.46
2022-10-29T20:43:47.269Z,68.51
2022-10-29T20:44:48.808Z,68.57
2022-10-29T20:45:50.371Z,68.73
2022-10-29T20:46:51.920Z,68.82
2022-10-29T20:47:53.482Z,68.82
2022-10-29T20:48:55.000Z,68.82
2022-10-29T20:49:56.464Z,68.82
2022-10-29T20:50:58.072Z,68.96
2022-10-29T20:51:59.716Z,68.96
2022-10-29T20:53:01.344Z,68.99
2022-10-29T20:54:04.457Z,68.94
2022-10-29T20:55:07.836Z,69.07
2022-10-29T20:56:13.140Z,69.01
2022-10-29T20:57:17.673Z,69.02
2022-10-29T20:58:19.596Z,69.04
2022-10-29T20:59:21.941Z,68.95
2022-10-29T21:00:23.677Z,69.14
2022-10-29T21:01:25.814Z,69.27
2022-10-29T21:02:27.630Z,69.22
2022-10-29T21:03:29.217Z,69.28
2022-10-29T21:04:30.836Z,69.19
2022-10-29T21:05:32.301Z,69.23
2022-10-29T21:06:33.796Z,69.07
2022-10-29T21:07:35.248Z,69.16
2022-10-29T21:08:36.815Z,69.11
2022-10-29T21:09:38.254Z,69.27
2022-10-29T21:10:39.754Z,69.18
2022-10-29T21:11:41.375Z,69.12
2022-10-29T21:12:42.884Z,69.17
2022-10-29T21:13:44.412Z,69.20
2022-10-29T21:14:45.959Z,69.40
2022-10-29T21:15:47.406Z,69.55
2022-10-29T21:16:48.910Z,69.54
2022-10-29T21:17:50.425Z,69.55
2022-10-29T21:18:52.456Z,69.55
2022-10-29T21:19:53.967Z,69.65
2022-10-29T21:20:55.438Z,69.78
2022-10-29T21:21:57.134Z,69.72
2022-10-29T21:22:59.065Z,69.85
2022-10-29T21:24:00.856Z,69.91
2022-10-29T21:25:02.292Z,70.00
2022-10-29T21:26:04.516Z,70.05
2022-10-29T21:27:05.979Z,69.93
2022-10-29T21:28:07.458Z,69.99
2022-10-29T21:29:08.985Z,69.98
2022-10-29T21:30:10.810Z,69.92
2022-10-29T21:31:12.336Z,70.19
2022-10-29T21:32:16.924Z,70.09
2022-10-29T21:33:18.865Z,69.93
2022-10-29T21:34:20.348Z,69.91
2022-10-29T21:35:21.843Z,69.93
2022-10-29T21:36:23.448Z,69.86
2022-10-29T21:37:24.910Z,69.82
2022-10-29T21:38:28.249Z,69.81
2022-10-29T21:39:29.912Z,69.83
2022-10-29T21:40:31.448Z,69.87
2022-10-29T21:41:32.876Z,69.79
2022-10-29T21:42:34.358Z,69.68
2022-10-29T21:43:35.872Z,69.68
2022-10-29T21:44:37.437Z,69.65
2022-10-29T21:45:39.214Z,69.69
2022-10-29T21:46:40.658Z,69.72
2022-10-29T21:47:42.162Z,69.59
2022-10-29T21:48:43.630Z,69.65
2022-10-29T21:49:51.779Z,69.62
2022-10-29T21:51:00.876Z,69.46
2022-10-29T21:52:02.362Z,69.58
2022-10-29T21:53:04.240Z,69.66
2022-10-29T21:54:05.862Z,69.51
2022-10-29T21:55:07.577Z,69.53
2022-10-29T21:56:10.060Z,69.44
2022-10-29T21:57:11.557Z,69.52
2022-10-29T21:58:12.988Z,69.53
2022-10-29T21:59:14.500Z,69.75
2022-10-29T22:00:16.229Z,69.90
2022-10-29T22:01:17.790Z,69.89
2022-10-29T22:02:19.555Z,69.97
2022-10-29T22:03:21.066Z,69.88
2022-10-29T22:04:22.550Z,69.86
2022-10-29T22:05:24.006Z,69.77
2022-10-29T22:06:28.648Z,69.76
2022-10-29T22:07:30.115Z,69.84
2022-10-29T22:08:31.606Z,69.76
2022-10-29T22:09:33.420Z,69.75
2022-10-29T22:10:34.999Z,69.71
2022-10-29T22:11:36.483Z,69.71
2022-10-29T22:12:37.930Z,69.69
2022-10-29T22:13:39.498Z,69.71
2022-10-29T22:14:40.999Z,69.75
2022-10-29T22:15:44.481Z,69.67
2022-10-29T22:16:45.983Z,69.62
2022-10-29T22:17:47.445Z,69.69
2022-10-29T22:18:49.965Z,69.72
2022-10-29T22:19:51.827Z,69.77
2022-10-29T22:21:06.537Z,69.59
2022-10-29T22:22:08.091Z,69.72
2022-10-29T22:23:09.607Z,69.79
2022-10-29T22:24:11.144Z,69.86
2022-10-29T22:25:12.601Z,69.83
2022-10-29T22:26:14.605Z,69.86
2022-10-29T22:27:16.044Z,69.89
2022-10-29T22:28:17.549Z,69.83
2022-10-29T22:29:19.085Z,69.80
2022-10-29T22:30:20.565Z,69.90
2022-10-29T22:31:22.323Z,69.84
2022-10-29T22:32:23.806Z,69.95
2022-10-29T22:33:25.240Z,69.95
2022-10-29T22:34:26.779Z,69.87
2022-10-29T22:35:28.206Z,69.78
2022-10-29T22:36:31.849Z,69.97
2022-10-29T22:37:33.323Z,70.02
2022-10-29T22:38:34.860Z,69.99
2022-10-29T22:39:36.365Z,69.96
2022-10-29T22:40:40.961Z,70.12
2022-10-29T22:41:42.394Z,69.99
2022-10-29T22:42:43.876Z,69.94
2022-10-29T22:43:45.338Z,69.94
2022-10-29T22:44:46.825Z,69.92
2022-10-29T22:45:48.345Z,69.95
2022-10-29T22:46:49.801Z,69.95
2022-10-29T22:47:53.407Z,69.97
2022-10-29T22:48:54.880Z,69.96
2022-10-29T22:49:59.009Z,69.81
2022-10-29T22:51:01.648Z,69.91
2022-10-29T22:52:03.136Z,69.87
2022-10-29T22:53:04.644Z,69.80
2022-10-29T22:54:06.098Z,69.87
2022-10-29T22:55:07.833Z,69.87
2022-10-29T22:56:19.929Z,69.92
2022-10-29T22:57:21.367Z,69.85
2022-10-29T22:58:22.935Z,69.89
2022-10-29T22:59:24.499Z,70.00
2022-10-29T23:00:25.980Z,69.95
2022-10-29T23:01:28.351Z,69.90
2022-10-29T23:02:30.195Z,70.01
2022-10-29T23:03:31.808Z,69.94
2022-10-29T23:04:33.299Z,70.03
2022-10-29T23:05:34.763Z,70.05
2022-10-29T23:06:36.879Z,70.09
2022-10-29T23:07:38.477Z,70.02
2022-10-29T23:08:39.957Z,69.91
2022-10-29T23:09:41.511Z,70.08
2022-10-29T23:10:43.022Z,70.04
2022-10-29T23:11:44.514Z,69.90
2022-10-29T23:12:46.009Z,69.99
2022-10-29T23:13:52.141Z,70.00
2022-10-29T23:14:53.715Z,69.89
2022-10-29T23:15:55.196Z,70.14
2022-10-29T23:16:56.841Z,70.15
2022-10-29T23:17:58.591Z,70.01
2022-10-29T23:19:01.475Z,70.05
2022-10-29T23:20:03.225Z,70.01
2022-10-29T23:21:05.389Z,70.08
2022-10-29T23:22:07.166Z,69.98
2022-10-29T23:23:08.730Z,69.97
2022-10-29T23:24:10.224Z,70.09
2022-10-29T23:25:11.762Z,70.09
2022-10-29T23:26:14.935Z,70.04
2022-10-29T23:27:16.426Z,70.02
2022-10-29T23:28:17.945Z,69.90
2022-10-29T23:29:19.380Z,69.89
2022-10-29T23:30:20.880Z,69.94
2022-10-29T23:31:23.004Z,69.87
2022-10-29T23:32:24.502Z,69.90
2022-10-29T23:33:25.964Z,69.81
2022-10-29T23:34:27.479Z,69.80
2022-10-29T23:35:29.093Z,69.72
2022-10-29T23:36:30.662Z,69.74
2022-10-29T23:37:32.171Z,69.80
2022-10-29T23:38:33.857Z,69.77
2022-10-29T23:39:35.336Z,69.71
2022-10-29T23:40:36.931Z,69.66
2022-10-29T23:41:38.361Z,69.74
2022-10-29T23:42:39.864Z,69.81
2022-10-29T23:43:41.341Z,69.97
2022-10-29T23:44:42.794Z,70.03
2022-10-29T23:45:44.326Z,69.86
2022-10-29T23:46:45.789Z,69.86
2022-10-29T23:47:47.273Z,70.02
2022-10-29T23:48:48.745Z,69.91
2022-10-29T23:49:50.484Z,69.86
2022-10-29T23:50:52.146Z,69.88
2022-10-29T23:51:53.643Z,69.72
2022-10-29T23:52:55.180Z,69.64
2022-10-29T23:53:57.714Z,69.60
2022-10-29T23:54:59.355Z,69.65
2022-10-29T23:56:00.884Z,69.72
2022-10-29T23:57:02.393Z,69.67
2022-10-29T23:58:04.013Z,69.84
2022-10-29T23:59:05.473Z,69.78
